createdAt,value
2022-12-18T00:00:51.272Z,96623.47
2022-12-18T00:01:57.542Z,96621.88
2022-12-18T00:02:59.644Z,96619.19
2022-12-18T00:04:07.761Z,96618.41
2022-12-18T00:05:09.915Z,96625.03
2022-12-18T00:06:14.667Z,96612.44
2022-12-18T00:07:17.596Z,96614.81
2022-12-18T00:08:20.208Z,96624.72
2022-12-18T00:09:24.094Z,96617.47
2022-12-18T00:10:28.419Z,96624.41
2022-12-18T00:11:32.783Z,96626.00
2022-12-18T00:12:34.695Z,96627.56
2022-12-18T00:13:37.993Z,96628.38
2022-12-18T00:14:41.597Z,96625.69
2022-12-18T00:15:43.666Z,96622.19
2022-12-18T00:16:47.433Z,96629.16
2022-12-18T00:17:49.302Z,96630.72
2022-12-18T00:18:54.306Z,96631.50
2022-12-18T00:19:57.359Z,96637.66
2022-12-18T00:21:00.400Z,96643.78
2022-12-18T00:22:03.239Z,96647.25
2022-12-18T00:23:06.522Z,96641.91
2022-12-18T00:24:10.465Z,96644.56
2022-12-18T00:25:13.297Z,96639.22
2022-12-18T00:26:18.521Z,96646.16
2022-12-18T00:27:21.459Z,96651.53
2022-12-18T00:28:23.408Z,96653.09
2022-12-18T00:29:26.255Z,96646.94
2022-12-18T00:30:29.128Z,96647.72
2022-12-18T00:31:32.056Z,96641.59
2022-12-18T00:32:35.388Z,96648.50
2022-12-18T00:33:40.057Z,96645.84
2022-12-18T00:34:46.199Z,96644.56
2022-12-18T00:35:48.090Z,96649.78
2022-12-18T00:36:50.958Z,96646.63
2022-12-18T00:37:52.994Z,96635.91
2022-12-18T00:38:57.309Z,96639.69
2022-12-18T00:40:00.199Z,96645.38
2022-12-18T00:41:02.869Z,96644.88
2022-12-18T00:42:24.618Z,96656.69
2022-12-18T00:43:26.599Z,96654.47
2022-12-18T00:44:29.499Z,96657.28
2022-12-18T00:45:32.515Z,96653.84
2022-12-18T00:46:35.834Z,96660.75
2022-12-18T00:47:37.718Z,96651.66
2022-12-18T00:48:40.678Z,96654.81
2022-12-18T00:49:42.582Z,96657.16
2022-12-18T00:50:45.518Z,96661.09
2022-12-18T00:51:47.785Z,96663.47
2022-12-18T00:52:50.803Z,96660.78
2022-12-18T00:53:52.685Z,96666.13
2022-12-18T00:54:55.475Z,96669.28
2022-12-18T00:55:57.374Z,96672.75
2022-12-18T00:57:00.267Z,96675.44
2022-12-18T00:58:03.481Z,96680.31
2022-12-18T00:59:06.810Z,96676.53
2022-12-18T01:00:13.328Z,96677.63
2022-12-18T01:01:16.963Z,96684.56
2022-12-18T01:02:19.171Z,96689.94
2022-12-18T01:03:22.151Z,96692.91
2022-12-18T01:04:24.055Z,96691.00
2022-12-18T01:05:28.096Z,96694.50
2022-12-18T01:06:30.499Z,96692.13
2022-12-18T01:07:33.372Z,96687.56
2022-12-18T01:08:35.720Z,96690.72
2022-12-18T01:09:38.615Z,96691.81
2022-12-18T01:10:41.847Z,96694.50
2022-12-18T01:11:44.683Z,96692.13
2022-12-18T01:12:46.613Z,96699.06
2022-12-18T01:13:51.137Z,96700.94
2022-12-18T01:14:53.102Z,96705.22
2022-12-18T01:15:56.892Z,96704.88
2022-12-18T01:16:59.856Z,96710.25
2022-12-18T01:18:02.185Z,96706.47
2022-12-18T01:19:05.136Z,96707.56
2022-12-18T01:20:09.538Z,96703.81
2022-12-18T01:21:14.595Z,96705.66
2022-12-18T01:22:16.480Z,96712.91
2022-12-18T01:23:21.277Z,96700.63
2022-12-18T01:24:23.347Z,96710.56
2022-12-18T01:25:26.188Z,96705.50
2022-12-18T01:26:30.514Z,96703.63
2022-12-18T01:27:35.497Z,96706.28
2022-12-18T01:28:40.633Z,96705.50
2022-12-18T01:29:45.409Z,96703.63
2022-12-18T01:30:47.275Z,96709.75
2022-12-18T01:31:50.247Z,96716.72
2022-12-18T01:32:52.245Z,96712.13
2022-12-18T01:33:56.666Z,96719.38
2022-12-18T01:34:58.591Z,96721.72
2022-12-18T01:36:03.597Z,96711.34
2022-12-18T01:37:06.148Z,96720.94
2022-12-18T01:38:09.052Z,96720.47
2022-12-18T01:39:13.606Z,96718.91
2022-12-18T01:40:18.323Z,96715.75
2022-12-18T01:41:22.673Z,96714.19
2022-12-18T01:42:26.493Z,96714.97
2022-12-18T01:43:46.024Z,96713.22
2022-12-18T01:45:02.656Z,96726.13
2022-12-18T01:46:04.800Z,96727.06
2022-12-18T01:47:07.862Z,96721.22
2022-12-18T01:48:11.413Z,96727.34
2022-12-18T01:49:13.319Z,96722.00
2022-12-18T01:50:19.866Z,96721.69
2022-12-18T01:51:22.065Z,96718.72
2022-12-18T01:52:28.036Z,96724.53
2022-12-18T01:53:30.391Z,96726.13
2022-12-18T01:54:34.509Z,96729.28
2022-12-18T01:55:42.854Z,96726.28
2022-12-18T01:56:45.313Z,96724.06
2022-12-18T01:57:49.215Z,96716.38
2022-12-18T01:58:58.242Z,96719.53
2022-12-18T02:00:06.704Z,96719.53
2022-12-18T02:01:15.274Z,96714.78
2022-12-18T02:02:19.763Z,96714.16
2022-12-18T02:03:21.963Z,96719.81
2022-12-18T02:04:27.268Z,96720.59
2022-12-18T02:05:40.359Z,96720.59
2022-12-18T02:06:43.971Z,96713.38
2022-12-18T02:07:58.121Z,96708.78
2022-12-18T02:09:11.380Z,96709.56
2022-12-18T02:10:18.501Z,96707.69
2022-12-18T02:11:34.918Z,96703.09
2022-12-18T02:12:46.135Z,96708.47
2022-12-18T02:13:58.527Z,96712.25
2022-12-18T02:15:10.809Z,96696.81
2022-12-18T02:16:23.634Z,96697.91
2022-12-18T02:17:35.830Z,96696.34
2022-12-18T02:18:43.101Z,96700.28
2022-12-18T02:20:00.836Z,96693.03
2022-12-18T02:21:14.703Z,96699.97
2022-12-18T02:22:30.502Z,96696.50
2022-12-18T02:23:49.169Z,96698.38
2022-12-18T02:25:00.968Z,96699.16
2022-12-18T02:26:15.783Z,96700.75
2022-12-18T02:27:21.196Z,96700.75
2022-12-18T02:28:30.464Z,96714.63
2022-12-18T02:29:40.032Z,96721.53
2022-12-18T02:30:46.410Z,96714.31
2022-12-18T02:31:53.790Z,96711.63
2022-12-18T02:32:59.702Z,96710.53
2022-12-18T02:34:05.734Z,96709.44
2022-12-18T02:35:18.454Z,96714.78
2022-12-18T02:36:22.963Z,96711.03
2022-12-18T02:37:29.954Z,96710.22
2022-12-18T02:38:34.810Z,96709.75
2022-12-18T02:39:46.692Z,96699.34
2022-12-18T02:40:53.059Z,96700.91
2022-12-18T02:41:58.752Z,96694.47
2022-12-18T02:43:04.391Z,96700.91
2022-12-18T02:44:11.606Z,96700.91
2022-12-18T02:45:13.505Z,96697.16
2022-12-18T02:46:30.281Z,96703.28
2022-12-18T02:47:36.492Z,96705.19
2022-12-18T02:48:39.738Z,96702.50
2022-12-18T02:49:53.318Z,96704.06
2022-12-18T02:51:05.366Z,96709.44
2022-12-18T02:52:18.189Z,96712.09
2022-12-18T02:53:29.462Z,96708.34
2022-12-18T02:54:47.654Z,96711.03
2022-12-18T02:56:03.951Z,96708.00
2022-12-18T02:57:18.060Z,96708.81
2022-12-18T02:58:29.071Z,96710.38
2022-12-18T02:59:43.259Z,96710.38
2022-12-18T03:00:53.511Z,96705.03
2022-12-18T03:02:02.122Z,96710.09
2022-12-18T03:03:13.047Z,96707.41
2022-12-18T03:04:22.258Z,96711.94
2022-12-18T03:05:29.843Z,96705.81
2022-12-18T03:06:39.182Z,96711.94
2022-12-18T03:07:49.025Z,96705.81
2022-12-18T03:08:58.738Z,96702.06
2022-12-18T03:10:03.957Z,96698.56
2022-12-18T03:11:09.279Z,96695.88
2022-12-18T03:12:26.345Z,96688.97
2022-12-18T03:13:37.149Z,96697.31
2022-12-18T03:14:43.958Z,96693.53
2022-12-18T03:15:49.161Z,96689.59
2022-12-18T03:16:56.760Z,96698.72
2022-12-18T03:18:05.731Z,96697.94
2022-12-18T03:19:13.713Z,96697.94
2022-12-18T03:20:20.216Z,96702.50
2022-12-18T03:21:27.875Z,96696.38
2022-12-18T03:22:33.010Z,96697.94
2022-12-18T03:23:42.645Z,96703.28
2022-12-18T03:24:47.347Z,96700.31
2022-12-18T03:25:56.409Z,96703.00
2022-12-18T03:27:03.486Z,96703.00
2022-12-18T03:28:12.494Z,96700.31
2022-12-18T03:29:21.006Z,96703.00
2022-12-18T03:30:24.710Z,96700.31
2022-12-18T03:31:30.199Z,96702.50
2022-12-18T03:32:37.993Z,96708.94
2022-12-18T03:33:45.011Z,96701.53
2022-12-18T03:34:52.552Z,96712.25
2022-12-18T03:35:57.273Z,96706.91
2022-12-18T03:37:06.275Z,96711.47
2022-12-18T03:38:09.145Z,96712.25
2022-12-18T03:39:16.895Z,96710.69
2022-12-18T03:40:32.261Z,96720.59
2022-12-18T03:41:43.320Z,96713.66
2022-12-18T03:43:08.893Z,96710.69
2022-12-18T03:44:15.967Z,96716.81
2022-12-18T03:45:26.658Z,96714.94
2022-12-18T03:46:34.587Z,96716.81
2022-12-18T03:47:45.412Z,96718.72
2022-12-18T03:48:53.697Z,96719.03
2022-12-18T03:50:09.614Z,96714.59
2022-12-18T03:51:21.720Z,96721.03
2022-12-18T03:52:31.354Z,96720.22
2022-12-18T03:53:41.751Z,96722.44
2022-12-18T03:54:45.767Z,96713.28
2022-12-18T03:55:53.566Z,96709.06
2022-12-18T03:57:02.047Z,96705.25
2022-12-18T03:58:09.407Z,96709.50
2022-12-18T03:59:27.234Z,96717.06
2022-12-18T04:00:31.917Z,96712.81
2022-12-18T04:01:47.245Z,96712.19
2022-12-18T04:02:53.946Z,96714.06
2022-12-18T04:04:02.710Z,96712.19
2022-12-18T04:05:12.012Z,96715.34
2022-12-18T04:06:18.090Z,96717.53
2022-12-18T04:07:22.811Z,96720.69
2022-12-18T04:08:26.702Z,96719.13
2022-12-18T04:09:41.255Z,96731.72
2022-12-18T04:10:44.052Z,96722.44
2022-12-18T04:11:48.766Z,96734.22
2022-12-18T04:12:52.149Z,96725.09
2022-12-18T04:13:57.852Z,96727.44
2022-12-18T04:15:01.119Z,96725.25
2022-12-18T04:16:04.416Z,96727.63
2022-12-18T04:17:06.349Z,96713.16
2022-12-18T04:18:10.159Z,96724.34
2022-12-18T04:19:15.707Z,96721.34
2022-12-18T04:20:20.665Z,96721.84
2022-12-18T04:21:23.727Z,96719.16
2022-12-18T04:22:27.207Z,96717.28
2022-12-18T04:23:34.161Z,96713.81
2022-12-18T04:24:38.463Z,96713.81
2022-12-18T04:25:48.377Z,96719.47
2022-12-18T04:26:57.979Z,96714.13
2022-12-18T04:28:03.084Z,96719.47
2022-12-18T04:29:06.184Z,96719.94
2022-12-18T04:30:10.507Z,96715.69
2022-12-18T04:31:13.601Z,96719.94
2022-12-18T04:32:15.732Z,96716.16
2022-12-18T04:33:20.975Z,96708.94
2022-12-18T04:34:23.397Z,96715.06
2022-12-18T04:35:29.095Z,96722.00
2022-12-18T04:36:31.513Z,96720.44
2022-12-18T04:37:34.602Z,96720.44
2022-12-18T04:38:37.572Z,96723.09
2022-12-18T04:39:43.666Z,96722.31
2022-12-18T04:40:53.215Z,96721.22
2022-12-18T04:42:03.579Z,96711.28
2022-12-18T04:43:06.068Z,96722.00
2022-12-18T04:44:09.241Z,96722.00
2022-12-18T04:45:12.528Z,96738.06
2022-12-18T04:46:15.460Z,96734.91
2022-12-18T04:47:17.501Z,96739.16
2022-12-18T04:48:21.231Z,96738.38
2022-12-18T04:49:23.232Z,96738.38
2022-12-18T04:50:26.075Z,96735.72
2022-12-18T04:51:28.000Z,96733.81
2022-12-18T04:52:33.461Z,96745.31
2022-12-18T04:53:35.496Z,96745.00
2022-12-18T04:54:38.342Z,96744.19
2022-12-18T04:55:40.180Z,96748.75
2022-12-18T04:56:43.071Z,96745.00
2022-12-18T04:57:44.908Z,96751.16
2022-12-18T04:58:47.854Z,96750.34
2022-12-18T04:59:49.736Z,96751.94
2022-12-18T05:00:53.955Z,96751.94
2022-12-18T05:01:55.977Z,96756.19
2022-12-18T05:02:59.071Z,96750.03
2022-12-18T05:04:01.097Z,96742.81
2022-12-18T05:05:04.095Z,96744.38
2022-12-18T05:06:07.041Z,96741.69
2022-12-18T05:07:09.901Z,96745.16
2022-12-18T05:08:11.701Z,96747.84
2022-12-18T05:09:14.693Z,96755.88
2022-12-18T05:10:16.636Z,96749.72
2022-12-18T05:11:19.821Z,96756.66
2022-12-18T05:12:24.678Z,96756.66
2022-12-18T05:13:27.679Z,96753.19
2022-12-18T05:14:30.393Z,96753.97
2022-12-18T05:15:35.183Z,96751.28
2022-12-18T05:16:38.552Z,96756.66
2022-12-18T05:17:41.416Z,96747.06
2022-12-18T05:18:43.423Z,96755.09
2022-12-18T05:19:46.270Z,96743.59
2022-12-18T05:20:48.437Z,96755.09
2022-12-18T05:21:51.316Z,96752.41
2022-12-18T05:22:53.810Z,96755.09
2022-12-18T05:23:56.853Z,96750.84
2022-12-18T05:24:58.732Z,96754.31
2022-12-18T05:26:03.708Z,96762.00
2022-12-18T05:27:05.625Z,96752.72
2022-12-18T05:28:08.506Z,96756.50
2022-12-18T05:29:13.196Z,96765.31
2022-12-18T05:30:18.396Z,96773.34
2022-12-18T05:31:20.346Z,96768.00
2022-12-18T05:32:24.587Z,96770.66
2022-12-18T05:33:28.301Z,96769.09
2022-12-18T05:34:31.226Z,96770.19
2022-12-18T05:35:33.159Z,96779.31
2022-12-18T05:36:36.351Z,96776.16
2022-12-18T05:37:43.021Z,96776.16
2022-12-18T05:38:46.378Z,96768.13
2022-12-18T05:39:48.273Z,96775.03
2022-12-18T05:40:51.616Z,96764.66
2022-12-18T05:41:53.451Z,96761.19
2022-12-18T05:42:56.435Z,96764.66
2022-12-18T05:43:59.467Z,96760.88
2022-12-18T05:45:02.354Z,96764.34
2022-12-18T05:46:06.238Z,96763.56
2022-12-18T05:47:09.235Z,96766.06
2022-12-18T05:48:15.011Z,96758.34
2022-12-18T05:49:17.864Z,96757.56
2022-12-18T05:50:19.752Z,96766.19
2022-12-18T05:51:24.657Z,96767.31
2022-12-18T05:52:26.822Z,96768.56
2022-12-18T05:53:29.657Z,96766.38
2022-12-18T05:54:32.078Z,96764.47
2022-12-18T05:55:36.022Z,96770.63
2022-12-18T05:56:37.926Z,96774.56
2022-12-18T05:57:40.771Z,96780.72
2022-12-18T05:58:42.840Z,96780.41
2022-12-18T05:59:45.729Z,96777.25
2022-12-18T06:00:47.541Z,96780.72
2022-12-18T06:01:50.477Z,96775.38
2022-12-18T06:02:52.581Z,96780.72
2022-12-18T06:03:57.427Z,96789.69
2022-12-18T06:04:59.301Z,96782.88
2022-12-18T06:06:02.831Z,96772.94
2022-12-18T06:07:04.779Z,96777.53
2022-12-18T06:08:07.809Z,96774.84
2022-12-18T06:09:10.527Z,96779.91
2022-12-18T06:10:13.724Z,96771.06
2022-12-18T06:11:18.809Z,96767.78
2022-12-18T06:12:22.093Z,96772.03
2022-12-18T06:13:24.107Z,96769.69
2022-12-18T06:14:26.995Z,96765.09
2022-12-18T06:15:28.943Z,96771.25
2022-12-18T06:16:32.883Z,96773.13
2022-12-18T06:17:35.310Z,96777.38
2022-12-18T06:18:39.477Z,96772.03
2022-12-18T06:19:43.741Z,96770.94
2022-12-18T06:20:45.649Z,96786.69
2022-12-18T06:21:50.163Z,96782.13
2022-12-18T06:22:52.125Z,96778.34
2022-12-18T06:23:54.981Z,96778.34
2022-12-18T06:24:56.809Z,96789.53
2022-12-18T06:25:59.709Z,96781.50
2022-12-18T06:27:01.584Z,96784.19
2022-12-18T06:28:04.569Z,96787.66
2022-12-18T06:29:07.367Z,96786.88
2022-12-18T06:30:11.796Z,96792.22
2022-12-18T06:31:13.952Z,96795.97
2022-12-18T06:32:17.055Z,96792.22
2022-12-18T06:33:19.073Z,96793.78
2022-12-18T06:34:21.987Z,96793.78
2022-12-18T06:35:25.297Z,96809.84
2022-12-18T06:36:30.335Z,96805.41
2022-12-18T06:37:32.560Z,96804.16
2022-12-18T06:38:37.683Z,96803.34
2022-12-18T06:39:39.888Z,96803.34
2022-12-18T06:40:42.858Z,96801.47
2022-12-18T06:41:44.786Z,96804.94
2022-12-18T06:42:47.688Z,96803.06
2022-12-18T06:43:49.628Z,96800.38
2022-12-18T06:44:52.580Z,96799.56
2022-12-18T06:46:00.118Z,96808.41
2022-12-18T06:47:03.126Z,96812.66
2022-12-18T06:48:05.106Z,96807.31
2022-12-18T06:49:10.068Z,96819.59
2022-12-18T06:50:12.022Z,96815.03
2022-12-18T06:51:18.305Z,96809.34
2022-12-18T06:52:20.344Z,96813.94
2022-12-18T06:53:23.231Z,96822.75
2022-12-18T06:54:25.182Z,96818.19
2022-12-18T06:55:28.143Z,96818.19
2022-12-18T06:56:31.231Z,96818.19
2022-12-18T06:57:33.296Z,96823.22
2022-12-18T06:58:36.163Z,96817.09
2022-12-18T06:59:38.075Z,96822.16
2022-12-18T07:00:40.925Z,96821.38
2022-12-18T07:01:42.941Z,96822.94
2022-12-18T07:02:46.002Z,96824.81
2022-12-18T07:03:48.322Z,96823.72
2022-12-18T07:04:53.896Z,96830.66
2022-12-18T07:05:55.801Z,96823.72
2022-12-18T07:07:00.052Z,96834.41
2022-12-18T07:08:01.933Z,96832.84
2022-12-18T07:09:04.894Z,96832.06
2022-12-18T07:10:07.126Z,96836.31
2022-12-18T07:11:10.058Z,96841.97
2022-12-18T07:12:12.057Z,96848.91
2022-12-18T07:13:15.041Z,96847.31
2022-12-18T07:14:17.426Z,96843.38
2022-12-18T07:15:20.272Z,96847.94
2022-12-18T07:16:25.691Z,96838.34
2022-12-18T07:17:29.361Z,96842.88
2022-12-18T07:18:31.344Z,96839.44
2022-12-18T07:19:34.578Z,96838.63
2022-12-18T07:20:36.555Z,96841.31
2022-12-18T07:21:40.692Z,96845.56
2022-12-18T07:22:43.945Z,96846.38
2022-12-18T07:23:48.930Z,96852.50
2022-12-18T07:24:52.163Z,96851.72
2022-12-18T07:25:54.339Z,96850.91
2022-12-18T07:26:57.215Z,96855.47
2022-12-18T07:27:59.075Z,96844.00
2022-12-18T07:29:01.891Z,96842.09
2022-12-18T07:30:04.888Z,96836.75
2022-12-18T07:31:09.328Z,96835.47
2022-12-18T07:32:12.366Z,96837.50
2022-12-18T07:33:14.595Z,96837.50
2022-12-18T07:34:17.490Z,96841.25
2022-12-18T07:35:24.713Z,96845.84
2022-12-18T07:36:28.185Z,96839.06
2022-12-18T07:37:30.032Z,96839.06
2022-12-18T07:38:35.147Z,96840.63
2022-12-18T07:39:37.043Z,96843.31
2022-12-18T07:40:39.933Z,96843.81
2022-12-18T07:41:46.734Z,96838.44
2022-12-18T07:42:52.520Z,96839.72
2022-12-18T07:43:54.532Z,96839.44
2022-12-18T07:44:57.421Z,96843.22
2022-12-18T07:46:00.656Z,96849.06
2022-12-18T07:47:06.615Z,96850.63
2022-12-18T07:48:12.313Z,96851.41
2022-12-18T07:49:15.275Z,96851.09
2022-12-18T07:50:17.578Z,96849.50
2022-12-18T07:51:20.863Z,96846.84
2022-12-18T07:52:25.975Z,96847.66
2022-12-18T07:53:29.498Z,96848.44
2022-12-18T07:54:33.720Z,96856.47
2022-12-18T07:55:59.877Z,96860.69
2022-12-18T07:56:59.672Z,96863.38
2022-12-18T07:58:05.211Z,96857.09
2022-12-18T07:59:08.088Z,96860.06
2022-12-18T08:00:12.408Z,96860.84
2022-12-18T08:01:14.527Z,96858.94
2022-12-18T08:02:17.691Z,96861.63
2022-12-18T08:03:20.422Z,96871.25
2022-12-18T08:04:23.348Z,96869.34
2022-12-18T08:05:26.306Z,96864.78
2022-12-18T08:06:29.230Z,96873.59
2022-12-18T08:07:31.112Z,96872.94
2022-12-18T08:08:35.130Z,96866.81
2022-12-18T08:09:39.364Z,96874.84
2022-12-18T08:10:41.242Z,96866.81
2022-12-18T08:11:44.187Z,96877.53
2022-12-18T08:12:46.129Z,96878.59
2022-12-18T08:13:48.988Z,96881.28
2022-12-18T08:14:51.382Z,96882.38
2022-12-18T08:15:59.068Z,96882.88
2022-12-18T08:17:01.046Z,96882.09
2022-12-18T08:18:04.040Z,96877.53
2022-12-18T08:19:05.952Z,96878.31
2022-12-18T08:20:10.173Z,96876.41
2022-12-18T08:21:13.364Z,96878.31
2022-12-18T08:22:16.216Z,96872.94
2022-12-18T08:23:18.058Z,96869.97
2022-12-18T08:24:20.876Z,96877.19
2022-12-18T08:25:25.064Z,96880.69
2022-12-18T08:26:28.762Z,96872.16
2022-12-18T08:27:31.665Z,96874.84
2022-12-18T08:28:35.025Z,96882.88
2022-12-18T08:29:37.886Z,96882.09
2022-12-18T08:30:39.800Z,96877.53
2022-12-18T08:31:43.245Z,96882.88
2022-12-18T08:32:45.223Z,96884.44
2022-12-18T08:33:50.880Z,96872.94
2022-12-18T08:34:53.915Z,96874.50
2022-12-18T08:35:55.852Z,96874.50
2022-12-18T08:36:58.677Z,96878.00
2022-12-18T08:38:00.544Z,96880.69
2022-12-18T08:39:03.379Z,96882.25
2022-12-18T08:40:06.677Z,96881.16
2022-12-18T08:41:12.744Z,96885.41
2022-12-18T08:42:32.552Z,96888.09
2022-12-18T08:43:53.144Z,96881.63
2022-12-18T08:44:56.280Z,96885.13
2022-12-18T08:45:58.322Z,96888.59
2022-12-18T08:47:01.165Z,96884.00
2022-12-18T08:48:03.087Z,96884.00
2022-12-18T08:49:06.712Z,96882.13
2022-12-18T08:50:10.893Z,96875.19
2022-12-18T08:51:14.142Z,96874.41
2022-12-18T08:52:17.156Z,96879.44
2022-12-18T08:53:18.963Z,96884.00
2022-12-18T08:54:21.856Z,96889.38
2022-12-18T08:55:23.941Z,96888.59
2022-12-18T08:56:28.248Z,96887.47
2022-12-18T08:57:31.098Z,96891.75
2022-12-18T08:58:33.018Z,96887.97
2022-12-18T08:59:36.990Z,96896.78
2022-12-18T09:00:38.892Z,96893.31
2022-12-18T09:01:41.880Z,96892.22
2022-12-18T09:02:44.053Z,96894.91
2022-12-18T09:03:50.234Z,96898.38
2022-12-18T09:04:57.093Z,96900.25
2022-12-18T09:06:00.794Z,96894.91
2022-12-18T09:07:03.698Z,96895.69
2022-12-18T09:08:06.802Z,96886.88
2022-12-18T09:09:08.697Z,96900.25
2022-12-18T09:10:11.620Z,96902.44
2022-12-18T09:11:16.307Z,96898.19
2022-12-18T09:12:20.595Z,96910.00
2022-12-18T09:13:22.962Z,96905.72
2022-12-18T09:14:25.914Z,96900.69
2022-12-18T09:15:27.814Z,96896.13
2022-12-18T09:16:33.003Z,96899.91
2022-12-18T09:17:36.075Z,96895.63
2022-12-18T09:18:39.260Z,96894.56
2022-12-18T09:19:42.516Z,96892.66
2022-12-18T09:20:44.702Z,96890.75
2022-12-18T09:21:48.431Z,96890.47
2022-12-18T09:22:51.662Z,96888.59
2022-12-18T09:23:56.215Z,96895.50
2022-12-18T09:24:59.036Z,96893.94
2022-12-18T09:26:01.265Z,96894.22
2022-12-18T09:27:04.217Z,96901.47
2022-12-18T09:28:11.273Z,96895.34
2022-12-18T09:29:18.743Z,96894.56
2022-12-18T09:30:20.919Z,96889.19
2022-12-18T09:31:26.055Z,96895.94
2022-12-18T09:32:28.936Z,96891.38
2022-12-18T09:33:30.843Z,96884.44
2022-12-18T09:34:34.713Z,96886.03
2022-12-18T09:35:41.615Z,96879.28
2022-12-18T09:36:44.604Z,96881.16
2022-12-18T09:37:46.572Z,96889.66
2022-12-18T09:38:49.504Z,96885.13
2022-12-18T09:39:51.407Z,96888.59
2022-12-18T09:40:56.428Z,96883.22
2022-12-18T09:42:00.590Z,96888.59
2022-12-18T09:43:05.825Z,96884.00
2022-12-18T09:44:21.950Z,96891.25
2022-12-18T09:45:25.641Z,96886.53
2022-12-18T09:46:32.464Z,96888.09
2022-12-18T09:47:39.785Z,96893.44
2022-12-18T09:48:45.591Z,96891.56
2022-12-18T09:49:51.351Z,96888.88
2022-12-18T09:50:56.639Z,96891.56
2022-12-18T09:52:04.481Z,96896.59
2022-12-18T09:53:15.066Z,96888.59
2022-12-18T09:54:23.664Z,96894.72
2022-12-18T09:55:36.818Z,96893.94
2022-12-18T09:56:43.494Z,96889.38
2022-12-18T09:57:51.441Z,96887.78
2022-12-18T09:58:59.609Z,96886.97
2022-12-18T10:00:17.203Z,96881.63
2022-12-18T10:01:23.712Z,96877.38
2022-12-18T10:02:28.756Z,96870.91
2022-12-18T10:03:31.841Z,96875.19
2022-12-18T10:04:34.003Z,96870.34
2022-12-18T10:05:43.049Z,96874.09
2022-12-18T10:06:51.363Z,96873.00
2022-12-18T10:08:00.987Z,96869.22
2022-12-18T10:09:11.393Z,96874.56
2022-12-18T10:10:25.564Z,96873.50
2022-12-18T10:11:41.060Z,96874.56
2022-12-18T10:12:51.969Z,96871.91
2022-12-18T10:14:00.271Z,96878.03
2022-12-18T10:15:09.043Z,96868.94
2022-12-18T10:16:17.040Z,96872.38
2022-12-18T10:17:28.511Z,96871.91
2022-12-18T10:18:45.247Z,96868.72
2022-12-18T10:19:54.750Z,96862.59
2022-12-18T10:21:05.919Z,96856.47
2022-12-18T10:22:23.544Z,96864.97
2022-12-18T10:23:34.789Z,96862.31
2022-12-18T10:24:44.564Z,96863.09
2022-12-18T10:25:55.898Z,96853.94
2022-12-18T10:27:09.631Z,96853.66
2022-12-18T10:28:15.098Z,96842.94
2022-12-18T10:29:18.172Z,96844.53
2022-12-18T10:30:25.547Z,96833.00
2022-12-18T10:31:27.630Z,96838.38
2022-12-18T10:32:32.797Z,96844.53
2022-12-18T10:33:36.695Z,96833.50
2022-12-18T10:34:38.529Z,96838.84
2022-12-18T10:35:44.310Z,96839.63
2022-12-18T10:36:48.607Z,96840.75
2022-12-18T10:38:22.422Z,96847.66
2022-12-18T10:39:27.213Z,96847.66
2022-12-18T10:40:29.477Z,96846.59
2022-12-18T10:41:33.335Z,96844.69
2022-12-18T10:42:35.247Z,96851.94
2022-12-18T10:43:39.881Z,96841.53
2022-12-18T10:44:41.881Z,96840.75
2022-12-18T10:46:01.798Z,96844.53
2022-12-18T10:47:11.656Z,96841.84
2022-12-18T10:48:23.088Z,96842.63
2022-12-18T10:49:28.844Z,96844.22
2022-12-18T10:51:01.793Z,96835.41
2022-12-18T10:52:16.090Z,96841.53
2022-12-18T10:53:21.810Z,96836.97
2022-12-18T10:54:27.413Z,96842.03
2022-12-18T10:55:35.394Z,96838.56
2022-12-18T10:56:39.024Z,96850.84
2022-12-18T10:57:42.711Z,96844.41
2022-12-18T10:58:57.440Z,96849.75
2022-12-18T11:00:03.858Z,96853.22
2022-12-18T11:01:10.927Z,96853.22
2022-12-18T11:02:29.537Z,96857.47
2022-12-18T11:03:36.523Z,96864.72
2022-12-18T11:04:53.142Z,96854.31
2022-12-18T11:06:03.828Z,96849.75
2022-12-18T11:07:08.568Z,96847.84
2022-12-18T11:08:22.365Z,96860.94
2022-12-18T11:09:26.797Z,96856.69
2022-12-18T11:10:32.823Z,96869.75
2022-12-18T11:11:35.781Z,96870.53
2022-12-18T11:12:37.735Z,96867.88
2022-12-18T11:13:41.364Z,96869.47
2022-12-18T11:14:47.603Z,96871.03
2022-12-18T11:15:51.482Z,96861.88
2022-12-18T11:17:24.494Z,96861.88
2022-12-18T11:18:24.693Z,96863.50
2022-12-18T11:19:34.967Z,96861.59
2022-12-18T11:20:38.136Z,96862.72
2022-12-18T11:21:42.625Z,96859.69
2022-12-18T11:22:56.288Z,96867.72
2022-12-18T11:23:58.263Z,96861.28
2022-12-18T11:26:37.120Z,96854.53
2022-12-18T11:27:41.955Z,96853.75
2022-12-18T11:28:48.425Z,96861.78
2022-12-18T11:29:52.017Z,96864.47
2022-12-18T11:31:14.002Z,96857.50
2022-12-18T11:32:38.342Z,96852.16
2022-12-18T11:33:58.491Z,96840.66
2022-12-18T11:35:16.922Z,96845.72
2022-12-18T11:36:20.631Z,96841.44
2022-12-18T11:37:23.715Z,96841.44
2022-12-18T11:38:29.967Z,96852.16
2022-12-18T11:39:38.343Z,96847.56
2022-12-18T11:40:46.238Z,96843.03
2022-12-18T11:42:14.326Z,96844.59
2022-12-18T11:43:20.871Z,96844.59
2022-12-18T11:44:27.871Z,96846.78
2022-12-18T11:45:32.972Z,96848.41
2022-12-18T11:46:38.560Z,96843.03
2022-12-18T11:47:50.099Z,96840.38
2022-12-18T11:48:59.778Z,96839.25
2022-12-18T11:50:04.875Z,96843.81
2022-12-18T11:51:15.347Z,96844.59
2022-12-18T11:52:21.859Z,96835.00
2022-12-18T11:53:26.667Z,96833.91
2022-12-18T11:54:28.517Z,96835.50
2022-12-18T11:55:42.625Z,96823.19
2022-12-18T11:56:49.170Z,96820.50
2022-12-18T11:57:59.695Z,96818.63
2022-12-18T11:59:18.055Z,96819.41
2022-12-18T12:00:21.924Z,96814.06
2022-12-18T12:01:43.403Z,96826.34
2022-12-18T12:03:18.863Z,96829.03
2022-12-18T12:05:00.340Z,96831.69
2022-12-18T12:06:15.545Z,96821.00
2022-12-18T12:07:29.783Z,96826.34
2022-12-18T12:08:42.160Z,96819.09
2022-12-18T12:09:54.378Z,96830.13
2022-12-18T12:11:07.888Z,96821.28
2022-12-18T12:12:28.145Z,96824.28
2022-12-18T12:13:46.833Z,96821.63
2022-12-18T12:14:59.214Z,96825.38
2022-12-18T12:16:14.559Z,96825.38
2022-12-18T12:17:30.431Z,96828.38
2022-12-18T12:18:50.279Z,96829.16
2022-12-18T12:20:00.792Z,96822.22
2022-12-18T12:21:11.798Z,96825.69
2022-12-18T12:22:24.732Z,96822.84
2022-12-18T12:23:36.624Z,96815.91
2022-12-18T12:24:50.946Z,96821.28
2022-12-18T12:26:01.791Z,96815.09
2022-12-18T12:27:18.529Z,96818.59
2022-12-18T12:28:34.095Z,96812.13
2022-12-18T12:29:48.611Z,96811.03
2022-12-18T12:31:03.504Z,96815.28
2022-12-18T12:32:28.266Z,96810.22
2022-12-18T12:33:44.129Z,96805.22
2022-12-18T12:35:01.772Z,96809.44
2022-12-18T12:36:17.338Z,96808.34
2022-12-18T12:37:29.808Z,96809.16
2022-12-18T12:38:37.316Z,96811.84
2022-12-18T12:39:43.225Z,96819.53
2022-12-18T12:40:56.629Z,96813.69
2022-12-18T12:42:20.171Z,96806.78
2022-12-18T12:43:29.473Z,96815.09
2022-12-18T12:44:36.699Z,96812.75
2022-12-18T12:45:46.586Z,96815.91
2022-12-18T12:46:51.213Z,96806.78
2022-12-18T12:47:55.831Z,96808.34
2022-12-18T12:49:04.518Z,96815.28
2022-12-18T12:50:15.051Z,96814.19
2022-12-18T12:51:21.625Z,96819.25
2022-12-18T12:52:32.917Z,96807.75
2022-12-18T12:53:40.162Z,96806.63
2022-12-18T12:54:45.925Z,96815.44
2022-12-18T12:55:48.086Z,96816.25
2022-12-18T12:56:57.741Z,96818.13
2022-12-18T12:58:07.758Z,96812.78